createdAt,value
2019-05-03T00:02:52.271Z,64.77
2019-05-03T00:05:32.476Z,64.34
2019-05-03T00:08:05.328Z,64.39
2019-05-03T00:10:32.836Z,64.44
2019-05-03T00:13:01.888Z,64.32
2019-05-03T00:15:53.919Z,64.32
2019-05-03T00:18:23.261Z,64.27
2019-05-03T00:20:52.727Z,64.67
2019-05-03T00:23:19.895Z,64.90
2019-05-03T00:25:47.021Z,65.14
2019-05-03T00:28:15.301Z,65.17
2019-05-03T00:30:42.489Z,65.19
2019-05-03T00:33:09.528Z,64.99
2019-05-03T00:35:59.319Z,65.27
2019-05-03T00:38:27.002Z,65.37
2019-05-03T00:40:54.261Z,65.19
2019-05-03T00:43:22.260Z,65.41
2019-05-03T00:45:51.712Z,65.21
2019-05-03T00:48:19.262Z,65.39
2019-05-03T00:50:46.327Z,65.39
2019-05-03T00:53:13.347Z,65.26
2019-05-03T00:55:42.636Z,65.32
2019-05-03T00:58:11.722Z,65.31
2019-05-03T01:00:41.651Z,65.65
2019-05-03T01:03:12.426Z,65.98
2019-05-03T01:05:39.779Z,66.16
2019-05-03T01:08:06.853Z,65.68
2019-05-03T01:10:33.944Z,65.79
2019-05-03T01:13:02.121Z,65.65
2019-05-03T01:15:36.596Z,65.73
2019-05-03T01:18:05.623Z,65.70
2019-05-03T01:20:33.038Z,65.69
2019-05-03T01:23:01.953Z,65.76
2019-05-03T01:25:34.612Z,66.10
2019-05-03T01:27:58.098Z,66.10
2019-05-03T01:30:25.173Z,65.88
2019-05-03T01:32:52.467Z,65.87
2019-05-03T01:35:21.940Z,65.71
2019-05-03T01:37:49.056Z,65.36
2019-05-03T01:40:16.091Z,65.39
2019-05-03T01:42:44.250Z,63.39
2019-05-03T01:45:12.133Z,61.60
2019-05-03T01:47:47.084Z,61.47
2019-05-03T01:50:39.792Z,60.93
2019-05-03T01:53:08.892Z,61.13
2019-05-03T01:56:04.578Z,60.83
2019-05-03T01:58:32.393Z,60.39
2019-05-03T02:01:22.179Z,59.31
2019-05-03T02:03:59.118Z,58.95
2019-05-03T02:06:26.227Z,59.12
2019-05-03T02:08:54.555Z,59.44
2019-05-03T02:11:22.211Z,59.35
2019-05-03T02:13:49.665Z,59.38
2019-05-03T02:16:16.873Z,59.32
2019-05-03T02:18:43.921Z,59.68
2019-05-03T02:21:12.242Z,59.79
2019-05-03T02:23:39.416Z,60.15
2019-05-03T02:26:06.454Z,60.42
2019-05-03T02:28:35.414Z,60.22
2019-05-03T02:31:03.584Z,60.42
2019-05-03T02:33:32.869Z,60.67
2019-05-03T02:36:03.270Z,60.97
2019-05-03T02:38:30.247Z,60.80
2019-05-03T02:40:57.263Z,61.22
2019-05-03T02:43:38.599Z,61.54
2019-05-03T02:46:25.596Z,61.60
2019-05-03T02:48:58.820Z,61.93
2019-05-03T02:51:26.308Z,62.00
2019-05-03T02:53:56.770Z,62.35
2019-05-03T02:56:25.892Z,62.56
2019-05-03T02:58:51.632Z,63.12
2019-05-03T03:01:18.769Z,63.01
2019-05-03T03:03:46.277Z,63.24
2019-05-03T03:06:15.899Z,63.04
2019-05-03T03:08:48.299Z,63.22
2019-05-03T03:11:18.758Z,63.33
2019-05-03T03:13:47.060Z,63.29
2019-05-03T03:16:17.215Z,63.51
2019-05-03T03:18:45.612Z,63.68
2019-05-03T03:21:16.474Z,63.56
2019-05-03T03:24:06.450Z,63.54
2019-05-03T03:26:41.635Z,63.42
2019-05-03T03:29:07.038Z,63.58
2019-05-03T03:31:49.529Z,63.69
2019-05-03T03:34:20.737Z,63.76
2019-05-03T03:37:00.927Z,64.09
2019-05-03T03:39:19.989Z,64.21
2019-05-03T03:41:47.643Z,64.21
2019-05-03T03:44:17.285Z,64.39
2019-05-03T03:46:46.137Z,64.46
2019-05-03T03:49:15.599Z,64.52
2019-05-03T03:51:45.598Z,64.72
2019-05-03T03:54:16.932Z,64.93
2019-05-03T03:56:59.366Z,65.02
2019-05-03T03:59:18.572Z,65.29
2019-05-03T04:01:46.021Z,65.72
2019-05-03T04:04:16.037Z,65.99
2019-05-03T04:06:46.417Z,66.04
2019-05-03T04:09:12.422Z,66.65
2019-05-03T04:11:40.704Z,66.88
2019-05-03T04:14:16.152Z,67.18
2019-05-03T04:17:07.004Z,67.47
2019-05-03T04:19:36.371Z,67.84
2019-05-03T04:22:05.955Z,68.13
2019-05-03T04:24:35.160Z,67.86
2019-05-03T04:27:15.584Z,67.74
2019-05-03T04:29:45.403Z,67.82
2019-05-03T04:32:15.400Z,67.64
2019-05-03T04:34:42.241Z,67.37
2019-05-03T04:37:09.305Z,67.33
2019-05-03T04:39:37.495Z,67.18
2019-05-03T04:42:06.724Z,66.41
2019-05-03T04:44:35.771Z,65.77
2019-05-03T04:47:02.482Z,65.03
2019-05-03T04:49:29.547Z,64.23
2019-05-03T04:51:56.684Z,63.73
2019-05-03T04:54:50.560Z,63.26
2019-05-03T04:57:34.855Z,63.57
2019-05-03T04:59:46.593Z,63.54
2019-05-03T05:02:15.972Z,62.76
2019-05-03T05:04:42.606Z,62.41
2019-05-03T05:07:10.178Z,62.81
2019-05-03T05:09:37.223Z,63.41
2019-05-03T05:12:05.749Z,63.08
2019-05-03T05:14:35.299Z,63.11
2019-05-03T05:17:02.477Z,63.13
2019-05-03T05:19:39.715Z,63.32
2019-05-03T05:22:09.203Z,63.44
2019-05-03T05:24:36.278Z,63.38
2019-05-03T05:27:48.283Z,63.86
2019-05-03T05:30:06.354Z,64.30
2019-05-03T05:32:35.034Z,63.15
2019-05-03T05:35:02.202Z,62.63
2019-05-03T05:37:30.615Z,62.23
2019-05-03T05:39:57.687Z,60.48
2019-05-03T05:42:25.154Z,58.95
2019-05-03T05:44:52.221Z,60.24
2019-05-03T05:47:44.998Z,61.13
2019-05-03T05:50:21.176Z,61.65
2019-05-03T05:52:48.307Z,62.39
2019-05-03T05:55:48.310Z,61.99
2019-05-03T05:58:35.230Z,62.47
2019-05-03T06:01:10.221Z,63.12
2019-05-03T06:03:37.293Z,62.95
2019-05-03T06:06:08.524Z,62.76
2019-05-03T06:08:48.420Z,62.13
2019-05-03T06:11:20.932Z,62.07
2019-05-03T06:13:54.949Z,61.40
2019-05-03T06:16:27.537Z,61.15
2019-05-03T06:19:04.562Z,61.23
2019-05-03T06:21:40.497Z,60.92
2019-05-03T06:24:12.430Z,61.48
2019-05-03T06:26:44.875Z,61.91
2019-05-03T06:29:14.964Z,62.24
2019-05-03T06:32:16.112Z,62.69
2019-05-03T06:34:45.504Z,61.22
2019-05-03T06:37:15.182Z,55.47
2019-05-03T06:39:42.239Z,51.66
2019-05-03T06:42:10.091Z,49.21
2019-05-03T06:44:38.428Z,51.83
2019-05-03T06:47:11.457Z,56.33
2019-05-03T06:49:44.791Z,55.76
2019-05-03T06:52:10.836Z,56.78
2019-05-03T06:54:47.414Z,56.45
2019-05-03T06:57:17.538Z,56.71
2019-05-03T06:59:56.094Z,53.54
2019-05-03T07:02:46.124Z,55.43
2019-05-03T07:05:25.091Z,56.43
2019-05-03T07:08:20.267Z,55.38
2019-05-03T07:10:50.693Z,57.57
2019-05-03T07:13:21.797Z,57.64
2019-05-03T07:15:50.166Z,57.37
2019-05-03T07:18:19.625Z,58.40
2019-05-03T07:20:57.030Z,57.48
2019-05-03T07:23:25.674Z,57.84
2019-05-03T07:25:57.070Z,57.93
2019-05-03T07:28:25.599Z,57.54
2019-05-03T07:30:54.419Z,56.62
2019-05-03T07:33:34.511Z,56.22
2019-05-03T07:36:01.485Z,55.83
2019-05-03T07:38:30.096Z,53.49
2019-05-03T07:40:57.294Z,52.86
2019-05-03T07:43:24.693Z,50.96
2019-05-03T07:45:55.408Z,50.18
2019-05-03T07:48:25.291Z,49.24
2019-05-03T07:50:55.084Z,50.49
2019-05-03T07:53:25.181Z,47.99
2019-05-03T07:56:09.433Z,47.92
2019-05-03T07:58:40.983Z,50.01
2019-05-03T08:01:16.139Z,51.38
2019-05-03T08:03:47.451Z,51.33
2019-05-03T08:06:15.017Z,50.50
2019-05-03T08:08:42.173Z,49.79
2019-05-03T08:11:09.204Z,50.97
2019-05-03T08:13:36.436Z,51.88
2019-05-03T08:16:05.680Z,51.36
2019-05-03T08:18:32.788Z,52.03
2019-05-03T08:21:01.006Z,51.80
2019-05-03T08:23:30.362Z,52.32
2019-05-03T08:25:57.427Z,49.96
2019-05-03T08:28:24.722Z,48.64
2019-05-03T08:31:04.786Z,48.38
2019-05-03T08:33:48.750Z,48.56
2019-05-03T08:36:17.654Z,46.97
2019-05-03T08:38:45.208Z,48.56
2019-05-03T08:41:15.228Z,48.17
2019-05-03T08:43:44.619Z,49.09
2019-05-03T08:46:11.844Z,49.62
2019-05-03T08:48:39.992Z,49.88
2019-05-03T08:51:07.078Z,49.34
2019-05-03T08:53:35.789Z,46.51
2019-05-03T08:56:05.142Z,47.17
2019-05-03T08:58:34.783Z,48.69
2019-05-03T09:01:05.526Z,48.14
2019-05-03T09:03:36.282Z,46.68
2019-05-03T09:06:04.633Z,46.06
2019-05-03T09:08:31.869Z,44.06
2019-05-03T09:11:05.085Z,44.71
2019-05-03T09:13:46.458Z,45.71
2019-05-03T09:16:14.755Z,44.66
2019-05-03T09:18:42.009Z,42.64
2019-05-03T09:21:09.245Z,41.59
2019-05-03T09:23:36.302Z,42.38
2019-05-03T09:26:04.630Z,44.44
2019-05-03T09:28:34.848Z,43.55
2019-05-03T09:31:02.088Z,39.92
2019-05-03T09:33:29.386Z,38.66
2019-05-03T09:35:56.886Z,36.13
2019-05-03T09:38:25.626Z,39.07
2019-05-03T09:40:54.622Z,39.52
2019-05-03T09:43:21.918Z,40.23
2019-05-03T09:45:50.455Z,40.40
2019-05-03T09:48:17.528Z,41.54
2019-05-03T09:50:45.146Z,40.39
2019-05-03T09:53:14.767Z,39.22
2019-05-03T09:55:44.979Z,37.73
2019-05-03T09:58:12.051Z,36.81
2019-05-03T10:00:39.086Z,38.10
2019-05-03T10:03:06.302Z,39.96
2019-05-03T10:05:35.086Z,39.34
2019-05-03T10:08:04.878Z,36.34
2019-05-03T10:10:51.010Z,35.55
2019-05-03T10:13:23.531Z,35.52
2019-05-03T10:15:50.550Z,35.57
2019-05-03T10:18:17.607Z,34.62
2019-05-03T10:20:44.806Z,33.69
2019-05-03T10:23:29.826Z,32.72
2019-05-03T10:25:56.867Z,29.98
2019-05-03T10:28:25.094Z,31.59
2019-05-03T10:30:54.739Z,33.38
2019-05-03T10:33:26.958Z,31.55
2019-05-03T10:35:54.580Z,32.67
2019-05-03T10:38:21.955Z,36.96
2019-05-03T10:40:49.670Z,36.47
2019-05-03T10:43:16.846Z,38.07
2019-05-03T10:45:45.020Z,37.37
2019-05-03T10:48:15.497Z,38.33
2019-05-03T10:50:42.938Z,34.32
2019-05-03T10:53:19.878Z,35.32
2019-05-03T10:56:05.318Z,36.15
2019-05-03T10:58:32.610Z,37.24
2019-05-03T11:00:59.784Z,38.01
2019-05-03T11:03:28.682Z,38.62
2019-05-03T11:05:55.834Z,38.61
2019-05-03T11:08:22.881Z,38.68
2019-05-03T11:10:50.511Z,38.09
2019-05-03T11:13:17.622Z,38.98
2019-05-03T11:15:44.687Z,39.85
2019-05-03T11:18:11.845Z,40.91
2019-05-03T11:20:38.903Z,41.34
2019-05-03T11:23:07.536Z,41.10
2019-05-03T11:25:41.713Z,40.02
2019-05-03T11:28:17.538Z,40.54
2019-05-03T11:30:53.114Z,41.39
2019-05-03T11:33:20.648Z,40.05
2019-05-03T11:36:22.264Z,40.02
2019-05-03T11:38:50.516Z,37.34
2019-05-03T11:41:35.998Z,37.68
2019-05-03T11:44:21.977Z,38.53
2019-05-03T11:46:49.189Z,36.85
2019-05-03T11:49:16.425Z,37.43
2019-05-03T11:51:44.628Z,39.12
2019-05-03T11:54:11.833Z,38.56
2019-05-03T11:56:39.285Z,39.10
2019-05-03T11:59:07.591Z,39.46
2019-05-03T12:02:02.395Z,39.77
2019-05-03T12:04:35.403Z,40.30
2019-05-03T12:07:03.073Z,39.56
2019-05-03T12:09:30.913Z,37.61
2019-05-03T12:12:04.892Z,36.74
2019-05-03T12:14:39.535Z,37.44
2019-05-03T12:17:18.343Z,37.39
2019-05-03T12:19:40.465Z,37.70
2019-05-03T12:22:08.899Z,39.17
2019-05-03T12:24:37.042Z,39.90
2019-05-03T12:27:04.818Z,38.27
2019-05-03T12:29:35.159Z,38.29
2019-05-03T12:32:02.065Z,38.18
2019-05-03T12:34:30.224Z,38.14
2019-05-03T12:36:57.329Z,33.26
2019-05-03T12:39:30.551Z,31.36
2019-05-03T12:41:57.053Z,30.62
2019-05-03T12:44:24.665Z,26.49
2019-05-03T12:46:51.951Z,24.97
2019-05-03T12:49:19.054Z,28.85
2019-05-03T12:51:48.101Z,30.59
2019-05-03T12:54:15.423Z,30.95
2019-05-03T12:56:42.455Z,30.44
2019-05-03T12:59:22.656Z,32.94
2019-05-03T13:02:04.745Z,29.67
2019-05-03T13:04:34.222Z,28.40
2019-05-03T13:07:24.656Z,29.65
2019-05-03T13:09:52.092Z,31.75
2019-05-03T13:12:21.486Z,35.12
2019-05-03T13:14:50.641Z,32.06
2019-05-03T13:17:34.745Z,25.32
2019-05-03T13:20:04.951Z,30.89
2019-05-03T13:22:34.925Z,35.90
2019-05-03T13:25:02.083Z,36.76
2019-05-03T13:27:29.281Z,37.89
2019-05-03T13:29:57.316Z,38.26
2019-05-03T13:32:26.198Z,38.23
2019-05-03T13:35:01.999Z,33.09
2019-05-03T13:37:29.091Z,36.01
2019-05-03T13:39:56.164Z,36.42
2019-05-03T13:42:23.292Z,26.51
2019-05-03T13:44:50.538Z,30.14
2019-05-03T13:47:17.671Z,29.83
2019-05-03T13:49:45.767Z,29.71
2019-05-03T13:52:14.559Z,30.88
2019-05-03T13:54:47.859Z,33.35
2019-05-03T13:57:18.241Z,31.81
2019-05-03T14:03:06.443Z,27.69
2019-05-03T14:05:38.161Z,32.91
2019-05-03T14:08:05.317Z,31.55
2019-05-03T14:10:35.986Z,27.52
2019-05-03T14:13:03.224Z,23.07
2019-05-03T14:15:34.626Z,28.48
2019-05-03T14:18:05.573Z,28.17
2019-05-03T14:21:06.086Z,30.09
2019-05-03T14:23:58.322Z,32.17
2019-05-03T14:26:56.108Z,31.03
2019-05-03T14:29:25.298Z,32.18
2019-05-03T14:31:54.485Z,32.96
2019-05-03T14:34:21.728Z,31.11
2019-05-03T14:36:48.997Z,27.33
2019-05-03T14:39:16.100Z,28.07
2019-05-03T14:41:46.525Z,26.41
2019-05-03T14:44:14.758Z,28.38
2019-05-03T14:46:41.481Z,28.01
2019-05-03T14:49:08.580Z,25.97
2019-05-03T14:51:37.686Z,27.46
2019-05-03T14:54:05.628Z,27.71
2019-05-03T14:56:51.348Z,30.26
2019-05-03T14:59:47.190Z,30.74
2019-05-03T15:02:47.595Z,30.36
2019-05-03T15:05:14.738Z,27.73
2019-05-03T15:07:41.533Z,25.56
2019-05-03T15:10:08.812Z,28.34
2019-05-03T15:12:36.224Z,26.15
2019-05-03T15:15:05.402Z,26.50
2019-05-03T15:17:35.080Z,23.54
2019-05-03T15:20:07.899Z,23.49
2019-05-03T15:22:36.181Z,25.61
2019-05-03T15:25:05.074Z,25.55
2019-05-03T15:27:35.261Z,25.75
2019-05-03T15:30:04.935Z,27.16
2019-05-03T15:32:32.212Z,27.18
2019-05-03T15:35:00.007Z,27.44
2019-05-03T15:37:27.081Z,25.64
2019-05-03T15:39:54.708Z,24.62
2019-05-03T15:42:23.170Z,26.96
2019-05-03T15:45:14.625Z,26.62
2019-05-03T15:48:01.407Z,27.52
2019-05-03T15:50:28.471Z,28.12
2019-05-03T15:52:55.764Z,29.26
2019-05-03T15:55:24.541Z,31.13
2019-05-03T15:57:51.666Z,31.53
2019-05-03T16:00:19.351Z,30.10
2019-05-03T16:02:46.712Z,26.95
2019-05-03T16:05:15.452Z,27.58
2019-05-03T16:07:44.576Z,25.91
2019-05-03T16:10:12.203Z,27.10
2019-05-03T16:12:39.287Z,28.10
2019-05-03T16:15:06.497Z,27.85
2019-05-03T16:17:35.417Z,29.20
2019-05-03T16:20:05.018Z,28.50
2019-05-03T16:22:33.761Z,28.59
2019-05-03T16:25:00.882Z,28.99
2019-05-03T16:27:48.975Z,29.35
2019-05-03T16:30:29.592Z,30.67
2019-05-03T16:32:56.898Z,30.47
2019-05-03T16:35:25.620Z,30.67
2019-05-03T16:37:54.492Z,29.37
2019-05-03T16:40:22.752Z,29.69
2019-05-03T16:42:54.411Z,29.15
2019-05-03T16:45:21.498Z,29.80
2019-05-03T16:47:48.563Z,31.51
2019-05-03T16:50:15.763Z,32.64
2019-05-03T16:52:42.996Z,31.98
2019-05-03T16:55:10.655Z,33.55
2019-05-03T16:57:41.764Z,34.05
2019-05-03T17:00:09.254Z,33.18
2019-05-03T17:02:38.348Z,32.47
2019-05-03T17:05:25.226Z,32.50
2019-05-03T17:08:14.701Z,32.76
2019-05-03T17:10:46.996Z,33.14
2019-05-03T17:13:15.775Z,34.06
2019-05-03T17:15:42.975Z,32.13
2019-05-03T17:18:11.570Z,31.21
2019-05-03T17:20:38.765Z,30.28
2019-05-03T17:23:07.022Z,29.96
2019-05-03T17:25:36.514Z,29.49
2019-05-03T17:28:05.013Z,30.12
2019-05-03T17:30:34.383Z,31.29
2019-05-03T17:33:04.666Z,31.33
2019-05-03T17:35:35.688Z,32.23
2019-05-03T17:38:17.179Z,33.82
2019-05-03T17:41:09.820Z,34.54
2019-05-03T17:43:55.332Z,33.65
2019-05-03T17:46:29.724Z,32.83
2019-05-03T17:49:05.159Z,34.06
2019-05-03T17:51:55.821Z,35.21
2019-05-03T17:55:01.114Z,35.90
2019-05-03T17:57:55.110Z,36.76
2019-05-03T18:00:46.232Z,37.05
2019-05-03T18:03:20.190Z,37.11
2019-05-03T18:06:17.296Z,37.51
2019-05-03T18:09:00.282Z,37.54
2019-05-03T18:11:34.675Z,38.03
2019-05-03T18:14:14.549Z,38.27
2019-05-03T18:16:48.453Z,38.35
2019-05-03T18:19:17.633Z,39.02
2019-05-03T18:21:47.772Z,38.70
2019-05-03T18:24:20.038Z,39.16
2019-05-03T18:26:53.597Z,39.67
2019-05-03T18:29:22.334Z,39.97
2019-05-03T18:31:57.941Z,40.12
2019-05-03T18:34:30.400Z,40.14
2019-05-03T18:37:11.517Z,40.61
2019-05-03T18:39:42.261Z,40.75
2019-05-03T18:42:17.891Z,41.11
2019-05-03T18:48:04.933Z,40.61
2019-05-03T18:50:40.961Z,40.92
2019-05-03T18:53:17.572Z,41.01
2019-05-03T18:55:45.416Z,41.20
2019-05-03T18:58:12.651Z,41.55
2019-05-03T19:00:42.086Z,41.23
2019-05-03T19:03:13.285Z,41.96
2019-05-03T19:05:45.506Z,41.79
2019-05-03T19:08:38.875Z,41.78
2019-05-03T19:11:17.735Z,42.13
2019-05-03T19:13:57.819Z,42.42
2019-05-03T19:16:43.123Z,43.01
2019-05-03T19:19:17.337Z,42.99
2019-05-03T19:21:46.318Z,43.54
2019-05-03T19:24:15.310Z,43.70
2019-05-03T19:26:45.363Z,43.73
2019-05-03T19:29:14.857Z,43.76
2019-05-03T19:31:46.674Z,44.14
2019-05-03T19:34:15.523Z,44.08
2019-05-03T19:36:42.824Z,44.62
2019-05-03T19:39:10.112Z,44.88
2019-05-03T19:41:37.428Z,45.14
2019-05-03T19:44:07.885Z,45.02
2019-05-03T19:46:36.626Z,45.18
2019-05-03T19:49:05.080Z,45.42
2019-05-03T19:51:34.387Z,45.25
2019-05-03T19:54:01.770Z,45.17
2019-05-03T19:56:32.681Z,45.36
2019-05-03T19:59:04.839Z,45.33
2019-05-03T20:01:55.245Z,45.62
2019-05-03T20:04:40.846Z,46.11
2019-05-03T20:07:22.911Z,46.33
2019-05-03T20:09:54.367Z,46.81
2019-05-03T20:12:26.843Z,47.17
2019-05-03T20:14:54.588Z,47.15
2019-05-03T20:17:22.129Z,46.81
2019-05-03T20:19:49.373Z,46.04
2019-05-03T20:22:17.702Z,46.15
2019-05-03T20:24:48.776Z,46.36
2019-05-03T20:27:25.054Z,46.63
2019-05-03T20:29:55.472Z,46.62
2019-05-03T20:32:25.199Z,46.96
2019-05-03T20:34:52.612Z,47.34
2019-05-03T20:37:19.852Z,47.74
2019-05-03T20:39:52.066Z,48.41
2019-05-03T20:42:40.719Z,48.72
2019-05-03T20:45:18.078Z,48.60
2019-05-03T20:47:59.150Z,48.98
2019-05-03T20:50:29.228Z,49.26
2019-05-03T20:53:00.926Z,49.14
2019-05-03T20:55:28.051Z,49.89
2019-05-03T20:57:55.207Z,50.54
2019-05-03T21:00:25.598Z,50.34
2019-05-03T21:02:57.545Z,50.26
2019-05-03T21:05:32.034Z,50.64
2019-05-03T21:08:01.191Z,50.67
2019-05-03T21:10:28.309Z,50.33
2019-05-03T21:13:00.263Z,49.91
2019-05-03T21:16:01.872Z,49.60
2019-05-03T21:18:45.698Z,48.99
2019-05-03T21:21:28.594Z,48.01
2019-05-03T21:24:01.911Z,47.04
2019-05-03T21:26:29.971Z,46.60
2019-05-03T21:28:57.206Z,46.35
2019-05-03T21:31:26.070Z,45.79
2019-05-03T21:33:56.050Z,45.49
2019-05-03T21:36:26.043Z,45.05
2019-05-03T21:38:55.001Z,45.37
2019-05-03T21:41:27.650Z,45.08
2019-05-03T21:43:55.910Z,45.30
2019-05-03T21:46:36.479Z,45.63
2019-05-03T21:49:16.697Z,45.81
2019-05-03T21:51:45.649Z,46.46
2019-05-03T21:54:15.274Z,47.41
2019-05-03T21:56:45.447Z,48.53
2019-05-03T21:59:12.777Z,48.83
2019-05-03T22:01:45.400Z,49.78
2019-05-03T22:04:12.477Z,50.58
2019-05-03T22:06:39.707Z,50.90
2019-05-03T22:09:08.373Z,51.29
2019-05-03T22:11:37.616Z,51.34
2019-05-03T22:14:09.008Z,51.31
2019-05-03T22:17:00.538Z,51.58
2019-05-03T22:19:29.759Z,51.61
2019-05-03T22:22:22.468Z,51.73
2019-05-03T22:25:00.265Z,51.64
2019-05-03T22:27:37.434Z,52.24
2019-05-03T22:30:08.895Z,51.18
2019-05-03T22:32:46.017Z,50.28
2019-05-03T22:35:15.516Z,50.29
2019-05-03T22:37:44.646Z,50.89
2019-05-03T22:40:11.783Z,52.08
2019-05-03T22:42:38.905Z,52.47
2019-05-03T22:45:06.892Z,52.42
2019-05-03T22:47:35.754Z,53.46
2019-05-03T22:50:05.288Z,53.05
2019-05-03T22:52:32.423Z,52.50
2019-05-03T22:55:00.581Z,53.21
2019-05-03T22:57:27.705Z,53.89
2019-05-03T22:59:54.774Z,53.84
2019-05-03T23:02:24.926Z,54.44
2019-05-03T23:04:52.239Z,55.19
2019-05-03T23:07:19.526Z,55.97
2019-05-03T23:09:46.631Z,55.11
2019-05-03T23:12:13.782Z,55.84
2019-05-03T23:14:40.886Z,56.05
2019-05-03T23:17:09.422Z,56.65
2019-05-03T23:19:40.854Z,56.70
2019-05-03T23:22:24.605Z,56.23
2019-05-03T23:24:52.195Z,55.69
2019-05-03T23:27:19.374Z,55.46
2019-05-03T23:29:46.520Z,55.26
2019-05-03T23:32:15.191Z,54.60
2019-05-03T23:34:42.469Z,53.65
2019-05-03T23:37:09.587Z,52.28
2019-05-03T23:39:38.906Z,51.58
2019-05-03T23:42:05.982Z,50.95
2019-05-03T23:44:35.087Z,50.41
2019-05-03T23:47:25.093Z,49.84
2019-05-03T23:49:55.385Z,49.46
2019-05-03T23:52:49.567Z,49.37
2019-05-03T23:55:28.062Z,49.24
2019-05-03T23:57:55.479Z,49.35
